Share

Fairdale, ND

RAWS HAMPDEN ND US (MHMDN8) Elev 1582 ft | 48.53 °N, 98.62 °W | Change Station
Active Advisory: Flood WarningWind Advisory

Current weather conditions updated 59 minutes ago

Mostly Cloudy
Mostly Cloudy
42 °F
Feels Like 32 °F
N
28
Wind Variable Wind from SE
Gusts 37.0 mph
Sunrise 6:36 AM
Sunset 8:28 PM
Moon Waning Gibbous

Tomorrow is forecast to be Much Warmer than today.

Pressure 29.89 in
Visibility 6.0 miles
Clouds Few 1900 ft
Scattered Clouds 3400 ft
Mostly Cloudy 4100 ft
Windchill 32 °F
Dew Point 28 °F
Humidity 57%
Rainfall 0.00 in
Snow Depth Not available.
UV 0 out of 16
Pollen 9.00 out of 12
Air Quality Not available.
Flu Activity Sporadic
METAR KD55 190135Z AUTO 12022G26KT 6SM UP FEW019 SCT034 BKN041 04/00 A2989 RMK AO2

More Conditions Fewer Conditions

Pressure 29.89 in
Visibility 6.0 miles
Clouds Few 1900 ft
Scattered Clouds 3400 ft
Mostly Cloudy 4100 ft
Windchill 32 °F
Dew Point 28 °F
Humidity 57%
Rainfall 0.00 in
Snow Depth Not available.
UV 0 out of 16
Pollen 9.00 out of 12
Air Quality Not available.
Flu Activity Sporadic
METAR KD55 190135Z AUTO 12022G26KT 6SM UP FEW019 SCT034 BKN041 04/00 A2989 RMK AO2

More Conditions Fewer Conditions

10-Day Weather Forecast

Almanac

Astronomy

Apr. 18, 2014 Rise Set
Actual Time 6:36 AM CDT 8:28 PM CDT
Civil Twilight 6:03 AM CDT 9:01 PM CDT
Nautical Twilight 5:22 AM CDT 9:43 PM CDT
Astronomical Twilight 4:37 AM CDT 10:28 PM CDT
Moon No Moon Rise 8:49 AM CDT (4/18)
Length of Visible Light 14h 58m
Length of Day
13h 51m
Tomorrow will be 3m 22s longer.
Waning Gibbous, 84% of the Moon is Illuminated
Today
Waning Gibbous
Apr 22
Last Quarter
Apr 29
New
May 6
First Quarter
May 14
Full

Today's Extremes

State Highs State Lows

Community

  • Cloudy spring view
    Cloudy spring view
  • Old barn
    Old barn
  • What's for Lunch?
    What's for Lunch?
  • SUNRISE THROUGH THE TREES.
    SUNRISE THROUGH THE TREES.
  • Dog Wood Blossoms
    Dog Wood Blossoms

WunderPhotos

Upload Photos

1,702,570 photos uploaded!

WunderBlogs® & News

Nearby

Snow Depth

Station Depth Elevation
No new snow has been reported.

Coastal Water Temperatures

Place Temperature
No Stations Reporting

Earthquake Activity

City Distance Mag. Time & Date
No recent earthquake activity has been reported nearby.
Minimum magnitude displayed is 2.5.

Nearby Weather Stations

Station Location Temp. Windchill Dew Point Humidity Wind Precip. Elev Updated Type
RAWS HAMPDEN ND, Hampden, ND 42 °F 32 °F 28 °F 57% SE  at  28 mph 0.00 in / hr 1582 ft 7:58 PM CDT MADIS

Show More Stations Show Fewer Stations

What do you think?

We're not finished. Please let us know what you like, what you don't like, and what you are still missing.